createdAt,value
2022-07-28T00:01:39.552Z,101538.19
2022-07-28T00:04:08.111Z,101520.59
2022-07-28T00:06:37.706Z,101518.94
2022-07-28T00:09:06.005Z,101525.69
2022-07-28T00:11:34.173Z,101524.09
2022-07-28T00:14:18.349Z,101520.50
2022-07-28T00:16:46.646Z,101523.28
2022-07-28T00:19:14.835Z,101532.25
2022-07-28T00:21:44.546Z,101527.22
2022-07-28T00:24:13.347Z,101517.59
2022-07-28T00:26:41.514Z,101534.38
2022-07-28T00:29:09.679Z,101521.22
2022-07-28T00:31:38.099Z,101532.69
2022-07-28T00:34:06.500Z,101514.09
2022-07-28T00:36:34.629Z,101538.66
2022-07-28T00:39:05.862Z,101544.16
2022-07-28T00:41:34.209Z,101537.25
2022-07-28T00:44:02.286Z,101551.44
2022-07-28T00:46:30.613Z,101552.22
2022-07-28T00:48:58.810Z,101537.16
2022-07-28T00:51:29.573Z,101536.91
2022-07-28T00:53:58.773Z,101552.78
2022-07-28T00:56:28.519Z,101556.31
2022-07-28T00:58:56.548Z,101552.03
2022-07-28T01:01:24.699Z,101556.75
2022-07-28T01:03:54.873Z,101547.28
2022-07-28T01:06:50.569Z,101560.66
2022-07-28T01:09:38.640Z,101566.03
2022-07-28T01:12:19.877Z,101566.16
2022-07-28T01:14:51.043Z,101567.94
2022-07-28T01:17:27.155Z,101562.69
2022-07-28T01:20:05.993Z,101562.69
2022-07-28T01:22:42.580Z,101549.63
2022-07-28T01:25:22.896Z,101564.66
2022-07-28T01:28:07.049Z,101564.66
2022-07-28T01:30:42.489Z,101541.97
2022-07-28T01:33:16.907Z,101561.34
2022-07-28T01:35:48.781Z,101568.34
2022-07-28T01:38:19.785Z,101566.75
2022-07-28T01:40:50.337Z,101567.69
2022-07-28T01:43:24.552Z,101569.53
2022-07-28T01:45:56.713Z,101568.66
2022-07-28T01:48:27.600Z,101570.44
2022-07-28T01:50:57.636Z,101569.53
2022-07-28T01:53:27.426Z,101580.97
2022-07-28T01:55:57.710Z,101573.94
2022-07-28T01:58:29.193Z,101564.28
2022-07-28T02:01:00.463Z,101568.66
2022-07-28T02:03:31.538Z,101565.16
2022-07-28T02:06:03.215Z,101573.94
2022-07-28T02:08:33.656Z,101567.00
2022-07-28T02:11:19.638Z,101572.22
2022-07-28T02:13:50.739Z,101574.00
2022-07-28T02:16:23.571Z,101568.84
2022-07-28T02:18:55.064Z,101575.88
2022-07-28T02:21:26.178Z,101574.09
2022-07-28T02:23:55.722Z,101540.66
2022-07-28T02:26:29.020Z,101583.91
2022-07-28T02:28:59.430Z,101574.22
2022-07-28T02:31:31.591Z,101584.88
2022-07-28T02:34:04.548Z,101590.16
2022-07-28T02:36:41.344Z,101589.25
2022-07-28T02:39:13.746Z,101597.22
2022-07-28T02:41:44.494Z,101593.75
2022-07-28T02:44:17.564Z,101592.03
2022-07-28T02:46:54.053Z,101581.31
2022-07-28T02:49:26.627Z,101593.53
2022-07-28T02:51:56.494Z,101593.75
2022-07-28T02:54:26.365Z,101604.31
2022-07-28T02:56:55.354Z,101603.56
2022-07-28T02:59:25.929Z,101605.25
2022-07-28T03:01:56.289Z,101608.78
2022-07-28T03:04:40.005Z,101604.44
2022-07-28T03:07:08.372Z,101612.38
2022-07-28T03:09:41.147Z,101616.84
2022-07-28T03:12:10.061Z,101614.13
2022-07-28T03:14:38.221Z,101614.09
2022-07-28T03:17:08.195Z,101618.59
2022-07-28T03:19:38.783Z,101614.22
2022-07-28T03:22:10.443Z,101610.75
2022-07-28T03:24:40.313Z,101625.69
2022-07-28T03:27:14.619Z,101619.56
2022-07-28T03:29:45.798Z,101634.56
2022-07-28T03:32:15.455Z,101629.28
2022-07-28T03:34:43.618Z,101638.13
2022-07-28T03:37:18.112Z,101636.38
2022-07-28T03:39:49.321Z,101646.97
2022-07-28T03:42:19.467Z,101607.41
2022-07-28T03:44:49.149Z,101646.00
2022-07-28T03:47:23.224Z,101646.88
2022-07-28T03:49:51.937Z,101644.97
2022-07-28T03:52:20.695Z,101644.97
2022-07-28T03:54:48.978Z,101659.03
2022-07-28T03:57:16.946Z,101636.03
2022-07-28T03:59:44.954Z,101650.97
2022-07-28T04:02:13.188Z,101657.13
2022-07-28T04:04:42.642Z,101650.94
2022-07-28T04:07:10.666Z,101650.84
2022-07-28T04:09:39.009Z,101658.81
2022-07-28T04:12:07.658Z,101657.97
2022-07-28T04:14:35.632Z,101666.78
2022-07-28T04:17:03.909Z,101665.88
2022-07-28T04:19:31.926Z,101668.63
2022-07-28T04:22:01.613Z,101658.91
2022-07-28T04:24:29.956Z,101666.88
2022-07-28T04:26:57.961Z,101651.81
2022-07-28T04:29:27.370Z,101672.97
2022-07-28T04:31:56.010Z,101651.81
2022-07-28T04:34:24.557Z,101650.03
2022-07-28T04:36:53.174Z,101667.66
2022-07-28T04:39:24.976Z,101663.19
2022-07-28T04:41:52.992Z,101665.81
2022-07-28T04:44:21.245Z,101660.50
2022-07-28T04:46:49.509Z,101671.94
2022-07-28T04:49:17.551Z,101671.94
2022-07-28T04:51:49.477Z,101681.63
2022-07-28T04:54:21.952Z,101679.00
2022-07-28T04:56:54.023Z,101686.94
2022-07-28T04:59:22.295Z,101686.78
2022-07-28T05:01:50.348Z,101679.66
2022-07-28T05:04:19.123Z,101684.06
2022-07-28T05:06:47.727Z,101684.94
2022-07-28T05:09:15.790Z,101686.75
2022-07-28T05:11:44.063Z,101684.94
2022-07-28T05:14:14.371Z,101686.66
2022-07-28T05:16:42.599Z,101690.06
2022-07-28T05:19:11.356Z,101698.84
2022-07-28T05:21:39.640Z,101695.34
2022-07-28T05:24:09.479Z,101697.88
2022-07-28T05:26:37.794Z,101697.88
2022-07-28T05:29:06.096Z,101698.72
2022-07-28T05:31:35.604Z,101703.13
2022-07-28T05:34:03.640Z,101699.41
2022-07-28T05:36:32.031Z,101704.78
2022-07-28T05:38:59.986Z,101710.91
2022-07-28T05:41:27.999Z,101709.00
2022-07-28T05:43:56.296Z,101719.56
2022-07-28T05:46:24.376Z,101712.34
2022-07-28T05:48:53.917Z,101716.81
2022-07-28T05:51:22.326Z,101718.53
2022-07-28T05:53:50.332Z,101732.56
2022-07-28T05:56:18.428Z,101743.91
2022-07-28T05:58:47.758Z,101735.03
2022-07-28T06:01:15.845Z,101735.00
2022-07-28T06:03:43.850Z,101741.97
2022-07-28T06:06:15.855Z,101738.47
2022-07-28T06:08:46.451Z,101747.19
2022-07-28T06:11:21.911Z,101747.16
2022-07-28T06:13:51.968Z,101740.03
2022-07-28T06:16:22.727Z,101744.31
2022-07-28T06:18:51.407Z,101748.69
2022-07-28T06:21:23.520Z,101744.09
2022-07-28T06:23:51.714Z,101763.50
2022-07-28T06:26:23.475Z,101757.22
2022-07-28T06:28:52.056Z,101748.31
2022-07-28T06:31:20.118Z,101760.66
2022-07-28T06:33:48.119Z,101762.41
2022-07-28T06:36:16.374Z,101762.28
2022-07-28T06:38:45.908Z,101756.81
2022-07-28T06:41:14.040Z,101760.25
2022-07-28T06:43:42.379Z,101768.06
2022-07-28T06:46:10.505Z,101772.41
2022-07-28T06:48:39.663Z,101776.75
2022-07-28T06:51:10.560Z,101767.03
2022-07-28T06:53:38.671Z,101771.38
2022-07-28T06:56:08.561Z,101775.78
2022-07-28T06:58:42.410Z,101752.66
2022-07-28T07:01:15.411Z,101768.38
2022-07-28T07:03:44.128Z,101769.47
2022-07-28T07:06:12.234Z,101772.97
2022-07-28T07:08:40.205Z,101766.84
2022-07-28T07:11:09.889Z,101774.94
2022-07-28T07:13:38.186Z,101768.63
2022-07-28T07:16:08.455Z,101782.59
2022-07-28T07:18:36.960Z,101775.41
2022-07-28T07:21:05.012Z,101773.47
2022-07-28T07:23:33.091Z,101756.66
2022-07-28T07:26:01.406Z,101775.31
2022-07-28T07:28:31.059Z,101780.72
2022-07-28T07:30:59.182Z,101780.78
2022-07-28T07:33:27.593Z,101778.91
2022-07-28T07:35:55.603Z,101775.25
2022-07-28T07:38:28.811Z,101783.16
2022-07-28T07:40:57.685Z,101785.66
2022-07-28T07:43:25.719Z,101785.56
2022-07-28T07:45:56.152Z,101785.78
2022-07-28T07:48:24.617Z,101792.59
2022-07-28T07:50:54.145Z,101791.53
2022-07-28T07:53:22.992Z,101795.59
2022-07-28T07:55:51.363Z,101789.66
2022-07-28T07:58:20.095Z,101783.56
2022-07-28T08:00:48.357Z,101786.66
2022-07-28T08:03:22.427Z,101775.06
2022-07-28T08:05:54.835Z,101792.72
2022-07-28T08:08:24.224Z,101788.94
2022-07-28T08:10:52.383Z,101782.25
2022-07-28T08:13:23.107Z,101782.47
2022-07-28T08:15:51.869Z,101775.63
2022-07-28T08:18:21.738Z,101783.44
2022-07-28T08:20:49.687Z,101789.28
2022-07-28T08:23:20.550Z,101802.16
2022-07-28T08:25:53.966Z,101795.03
2022-07-28T08:28:22.016Z,101804.69
2022-07-28T08:30:50.065Z,101802.66
2022-07-28T08:33:21.930Z,101806.81
2022-07-28T08:35:52.004Z,101812.69
2022-07-28T08:38:20.183Z,101821.16
2022-07-28T08:40:51.282Z,101812.06
2022-07-28T08:43:27.843Z,101821.28
2022-07-28T08:45:58.667Z,101814.28
2022-07-28T08:48:31.273Z,101817.56
2022-07-28T08:51:04.753Z,101818.97
2022-07-28T08:53:33.940Z,101804.88
2022-07-28T08:56:05.920Z,101822.50
2022-07-28T08:58:36.160Z,101810.53
2022-07-28T09:01:05.041Z,101816.47
2022-07-28T09:03:33.253Z,101800.41
2022-07-28T09:06:03.652Z,101817.34
2022-07-28T09:08:31.902Z,101818.63
2022-07-28T09:11:00.174Z,101817.34
2022-07-28T09:13:28.813Z,101826.41
2022-07-28T09:15:56.911Z,101829.34
2022-07-28T09:18:24.974Z,101827.81
2022-07-28T09:20:53.240Z,101821.00
2022-07-28T09:23:41.912Z,101828.84
2022-07-28T09:26:12.758Z,101833.31
2022-07-28T09:29:00.644Z,101833.22
2022-07-28T09:31:30.847Z,101842.63
2022-07-28T09:34:03.137Z,101836.81
2022-07-28T09:36:38.830Z,101849.50
2022-07-28T09:39:08.625Z,101842.94
2022-07-28T09:41:48.076Z,101850.09
2022-07-28T09:44:20.135Z,101847.63
2022-07-28T09:46:48.572Z,101816.72
2022-07-28T09:49:16.941Z,101855.00
2022-07-28T09:52:01.848Z,101858.84
2022-07-28T09:54:31.281Z,101863.34
2022-07-28T09:56:59.478Z,101862.84
2022-07-28T09:59:29.189Z,101851.38
2022-07-28T10:01:59.962Z,101862.88
2022-07-28T10:04:32.326Z,101868.91
2022-07-28T10:07:09.867Z,101862.94
2022-07-28T10:09:40.232Z,101867.63
2022-07-28T10:12:18.783Z,101873.84
2022-07-28T10:14:48.016Z,101871.22
2022-07-28T10:17:26.762Z,101875.31
2022-07-28T10:19:57.876Z,101872.31
2022-07-28T10:22:33.148Z,101863.91
2022-07-28T10:25:08.007Z,101866.38
2022-07-28T10:27:36.610Z,101870.28
2022-07-28T10:30:07.436Z,101869.44
2022-07-28T10:32:42.799Z,101874.06
2022-07-28T10:35:12.703Z,101885.16
2022-07-28T10:37:47.762Z,101867.72
2022-07-28T10:40:19.684Z,101870.41
2022-07-28T10:42:47.910Z,101875.66
2022-07-28T10:45:18.367Z,101875.31
2022-07-28T10:47:47.136Z,101876.94
2022-07-28T10:50:15.975Z,101880.50
2022-07-28T10:52:49.818Z,101876.75
2022-07-28T10:55:32.043Z,101887.69
2022-07-28T10:58:14.692Z,101880.78
2022-07-28T11:00:59.791Z,101885.03
2022-07-28T11:03:43.211Z,101883.94
2022-07-28T11:06:28.636Z,101880.84
2022-07-28T11:08:57.786Z,101869.81
2022-07-28T11:11:47.396Z,101886.25
2022-07-28T11:14:38.129Z,101868.63
2022-07-28T11:17:24.019Z,101873.06
2022-07-28T11:22:45.870Z,101895.34
2022-07-28T11:25:20.926Z,101899.97
2022-07-28T11:28:05.693Z,101907.50
2022-07-28T11:30:58.365Z,101901.00
2022-07-28T11:33:46.854Z,101889.75
2022-07-28T11:36:15.491Z,101896.63
2022-07-28T11:39:21.695Z,101900.31
2022-07-28T11:41:50.375Z,101918.00
2022-07-28T11:44:27.881Z,101911.06
2022-07-28T11:47:16.273Z,101904.13
2022-07-28T11:49:45.017Z,101904.13
2022-07-28T11:52:24.636Z,101903.88
2022-07-28T11:55:00.417Z,101906.91
2022-07-28T11:57:29.503Z,101910.09
2022-07-28T12:00:03.689Z,101909.47
2022-07-28T12:02:33.601Z,101913.94
2022-07-28T12:05:05.941Z,101912.59
2022-07-28T12:07:38.186Z,101919.47
2022-07-28T12:10:51.782Z,101913.44
2022-07-28T12:13:15.481Z,101916.16
2022-07-28T12:15:51.441Z,101926.00
2022-07-28T12:18:19.829Z,101924.81
2022-07-28T12:20:50.015Z,101911.31
2022-07-28T12:23:18.494Z,101932.78
2022-07-28T12:25:48.108Z,101914.91
2022-07-28T12:28:19.012Z,101926.22
2022-07-28T12:30:49.589Z,101916.44
2022-07-28T12:33:26.186Z,101923.84
2022-07-28T12:36:01.175Z,101902.84
2022-07-28T12:38:30.303Z,101919.59
2022-07-28T12:40:59.531Z,101911.50
2022-07-28T12:43:29.582Z,101882.44
2022-07-28T12:45:59.384Z,101907.47
2022-07-28T12:48:27.604Z,101909.66
2022-07-28T12:50:55.855Z,101913.19
2022-07-28T12:53:24.845Z,101908.81
2022-07-28T12:56:02.645Z,101911.03
2022-07-28T12:58:32.197Z,101901.00
2022-07-28T13:01:02.451Z,101904.53
2022-07-28T13:03:31.008Z,101915.66
2022-07-28T13:06:05.225Z,101914.19
2022-07-28T13:08:44.246Z,101910.84
2022-07-28T13:11:42.048Z,101903.16
2022-07-28T13:14:03.346Z,101918.78
2022-07-28T13:16:34.409Z,101920.63
2022-07-28T13:19:05.747Z,101929.25
2022-07-28T13:21:58.425Z,101920.56
2022-07-28T13:24:29.695Z,101916.59
2022-07-28T13:26:59.023Z,101923.63
2022-07-28T13:29:27.104Z,101911.06
2022-07-28T13:31:56.942Z,101919.03
2022-07-28T13:34:25.022Z,101914.03
2022-07-28T13:36:53.230Z,101903.03
2022-07-28T13:39:21.433Z,101920.47
2022-07-28T13:41:58.189Z,101928.09
2022-07-28T13:44:27.550Z,101930.91
2022-07-28T13:46:58.928Z,101922.56
2022-07-28T13:49:27.850Z,101920.00
2022-07-28T13:51:56.368Z,101914.53
2022-07-28T13:54:25.598Z,101922.88
2022-07-28T13:56:53.830Z,101910.25
2022-07-28T13:59:22.241Z,101908.91
2022-07-28T14:01:55.373Z,101908.91
2022-07-28T14:04:26.550Z,101911.06
2022-07-28T14:06:55.043Z,101914.59
2022-07-28T14:09:23.142Z,101924.97
2022-07-28T14:11:53.691Z,101924.34
2022-07-28T14:14:24.792Z,101920.56
2022-07-28T14:16:54.357Z,101904.50
2022-07-28T14:19:37.846Z,101907.41
2022-07-28T14:22:13.404Z,101909.47
2022-07-28T14:24:42.271Z,101918.78
2022-07-28T14:27:11.188Z,101911.31
2022-07-28T14:29:39.379Z,101914.66
2022-07-28T14:32:07.842Z,101907.22
2022-07-28T14:34:37.702Z,101914.34
2022-07-28T14:37:08.985Z,101906.78
2022-07-28T14:39:38.212Z,101909.16
2022-07-28T14:42:07.093Z,101910.84
2022-07-28T14:44:35.672Z,101903.13
2022-07-28T14:47:03.909Z,101892.63
2022-07-28T14:49:32.121Z,101900.31
2022-07-28T14:52:01.527Z,101903.09
2022-07-28T14:54:29.988Z,101905.41
2022-07-28T14:56:58.206Z,101894.31
2022-07-28T14:59:26.430Z,101901.41
2022-07-28T15:01:54.745Z,101903.81
2022-07-28T15:04:23.030Z,101897.75
2022-07-28T15:06:51.448Z,101893.69
2022-07-28T15:09:20.974Z,101898.47
2022-07-28T15:11:49.141Z,101903.81
2022-07-28T15:14:21.057Z,101891.66
2022-07-28T15:16:50.073Z,101894.53
2022-07-28T15:19:18.413Z,101889.22
2022-07-28T15:21:47.786Z,101904.72
2022-07-28T15:24:17.339Z,101895.34
2022-07-28T15:26:47.154Z,101910.13
2022-07-28T15:29:15.145Z,101899.94
2022-07-28T15:31:44.527Z,101908.72
2022-07-28T15:34:13.811Z,101902.16
2022-07-28T15:36:42.116Z,101905.66
2022-07-28T15:39:14.131Z,101907.22
2022-07-28T15:41:43.496Z,101905.41
2022-07-28T15:44:14.876Z,101911.91
2022-07-28T15:46:43.439Z,101897.88
2022-07-28T15:49:15.065Z,101906.25
2022-07-28T15:51:43.222Z,101904.50
2022-07-28T15:54:11.415Z,101908.13
2022-07-28T15:56:39.711Z,101916.53
2022-07-28T15:59:08.367Z,101904.88
2022-07-28T16:01:45.007Z,101905.09
2022-07-28T16:04:14.300Z,101910.94
2022-07-28T16:06:59.925Z,101916.28
2022-07-28T16:09:45.992Z,101908.88
2022-07-28T16:12:15.002Z,101914.91
2022-07-28T16:14:43.696Z,101912.25
2022-07-28T16:17:13.948Z,101913.22
2022-07-28T16:19:49.381Z,101916.69
2022-07-28T16:22:19.113Z,101909.13
2022-07-28T16:24:48.178Z,101917.06
2022-07-28T16:27:16.621Z,101907.16
2022-07-28T16:29:45.212Z,101921.56
2022-07-28T16:32:14.805Z,101921.31
2022-07-28T16:34:42.813Z,101920.56
2022-07-28T16:37:13.718Z,101924.25
2022-07-28T16:39:45.358Z,101914.59
2022-07-28T16:42:13.503Z,101914.09
2022-07-28T16:44:42.756Z,101923.59
2022-07-28T16:47:10.975Z,101935.31
2022-07-28T16:49:45.507Z,101925.47
2022-07-28T16:52:14.294Z,101934.19
2022-07-28T16:54:42.605Z,101942.63
2022-07-28T16:57:10.654Z,101949.19
2022-07-28T16:59:48.158Z,101941.28
2022-07-28T17:02:17.136Z,101951.91
2022-07-28T17:04:47.354Z,101951.22
2022-07-28T17:07:15.514Z,101960.16
2022-07-28T17:09:44.277Z,101958.38
2022-07-28T17:12:12.818Z,101962.81
2022-07-28T17:14:40.828Z,101958.03
2022-07-28T17:17:09.210Z,101942.03
2022-07-28T17:19:42.025Z,101948.41
2022-07-28T17:22:16.414Z,101959.03
2022-07-28T17:24:44.537Z,101964.94
2022-07-28T17:30:00.917Z,101954.38
2022-07-28T17:32:29.202Z,101952.97
2022-07-28T17:34:57.195Z,101950.19
2022-07-28T17:37:27.518Z,101953.06
2022-07-28T17:39:55.711Z,101952.97
2022-07-28T17:42:23.794Z,101958.41
2022-07-28T17:44:53.994Z,101958.56
2022-07-28T17:47:24.444Z,101967.41
2022-07-28T17:50:07.526Z,101946.19
2022-07-28T17:52:36.860Z,101962.06
2022-07-28T17:55:23.478Z,101958.47
2022-07-28T17:57:52.359Z,101964.06
2022-07-28T18:00:22.250Z,101967.72
2022-07-28T18:02:51.166Z,101964.22
2022-07-28T18:05:20.110Z,101970.50
2022-07-28T18:07:50.944Z,101975.09
2022-07-28T18:10:24.718Z,101969.81
2022-07-28T18:12:53.390Z,101971.47
2022-07-28T18:15:21.611Z,101978.66
2022-07-28T18:17:54.771Z,101973.47
2022-07-28T18:20:24.552Z,101976.19
2022-07-28T18:22:54.003Z,101975.53
2022-07-28T18:25:21.995Z,101971.13
2022-07-28T18:27:50.883Z,101982.66
2022-07-28T18:30:19.463Z,101980.88
2022-07-28T18:32:47.512Z,101919.41
2022-07-28T18:35:16.322Z,101937.81
2022-07-28T18:37:45.852Z,101972.97
2022-07-28T18:40:17.649Z,101969.53
2022-07-28T18:42:46.423Z,101965.88
2022-07-28T18:45:14.730Z,101981.06
2022-07-28T18:47:47.887Z,101981.28
2022-07-28T18:50:30.599Z,101982.28
2022-07-28T18:53:00.836Z,101974.19
2022-07-28T18:55:30.430Z,101980.56
2022-07-28T18:57:58.771Z,101986.69
2022-07-28T19:00:27.305Z,101990.34
2022-07-28T19:02:55.553Z,101978.06
2022-07-28T19:05:23.832Z,101989.56
2022-07-28T19:07:52.222Z,101979.06
2022-07-28T19:10:20.249Z,101988.13
2022-07-28T19:12:50.961Z,101992.69
2022-07-28T19:15:19.480Z,101979.47
2022-07-28T19:17:47.582Z,101993.59
2022-07-28T19:20:37.302Z,102007.00
2022-07-28T19:23:07.836Z,101999.97
2022-07-28T19:25:38.556Z,102001.88
2022-07-28T19:28:11.708Z,102001.94
2022-07-28T19:30:39.931Z,101993.13
2022-07-28T19:33:14.602Z,102005.81
2022-07-28T19:35:46.752Z,102006.84
2022-07-28T19:38:14.759Z,102018.56
2022-07-28T19:40:43.254Z,102011.59
2022-07-28T19:43:12.932Z,102024.94
2022-07-28T19:45:41.125Z,102002.88
2022-07-28T19:48:09.358Z,102025.94
2022-07-28T19:50:37.928Z,102024.09
2022-07-28T19:53:06.573Z,102027.66
2022-07-28T19:55:50.523Z,102029.50
2022-07-28T19:58:21.252Z,102029.50
2022-07-28T20:00:50.328Z,102020.84
2022-07-28T20:04:03.405Z,102034.06
2022-07-28T20:06:10.055Z,102032.25
2022-07-28T20:08:41.046Z,102038.53
2022-07-28T20:11:09.479Z,102027.19
2022-07-28T20:13:39.093Z,102033.41
2022-07-28T20:16:07.757Z,102044.03
2022-07-28T20:18:35.978Z,102040.53
2022-07-28T20:21:04.289Z,102014.00
2022-07-28T20:23:32.469Z,102049.19
2022-07-28T20:26:00.849Z,102039.63
2022-07-28T20:28:29.195Z,102054.72
2022-07-28T20:30:58.671Z,102052.13
2022-07-28T20:33:26.840Z,102048.53
2022-07-28T20:35:55.208Z,102041.66
2022-07-28T20:38:23.935Z,102044.25
2022-07-28T20:40:52.402Z,102065.50
2022-07-28T20:43:20.802Z,102046.97
2022-07-28T20:45:48.892Z,102058.56
2022-07-28T20:48:18.549Z,102071.06
2022-07-28T20:50:46.790Z,102060.53
2022-07-28T20:53:14.747Z,102077.38
2022-07-28T20:55:43.021Z,102069.53
2022-07-28T20:58:11.283Z,102072.34
2022-07-28T21:00:40.384Z,102078.63
2022-07-28T21:03:08.563Z,102087.53
2022-07-28T21:05:41.411Z,102078.81
2022-07-28T21:08:16.372Z,102084.22
2022-07-28T21:10:45.377Z,102071.88
2022-07-28T21:13:13.490Z,102080.84
2022-07-28T21:15:41.527Z,102084.50
2022-07-28T21:18:10.350Z,102082.75
2022-07-28T21:20:40.054Z,102091.69
2022-07-28T21:23:11.139Z,102086.50
2022-07-28T21:25:39.526Z,102055.63
2022-07-28T21:28:25.143Z,102086.41
2022-07-28T21:30:53.399Z,102080.28
2022-07-28T21:33:22.300Z,102097.16
2022-07-28T21:35:52.582Z,102086.69
2022-07-28T21:38:22.145Z,102079.59
2022-07-28T21:40:50.326Z,102092.91
2022-07-28T21:43:18.411Z,102083.28
2022-07-28T21:45:46.946Z,102088.59
2022-07-28T21:48:16.948Z,102086.03
2022-07-28T21:50:44.855Z,102098.34
2022-07-28T21:53:17.271Z,102067.53
2022-07-28T21:55:45.927Z,102104.56
2022-07-28T21:58:14.158Z,102074.59
2022-07-28T22:00:42.386Z,102111.72
2022-07-28T22:03:10.442Z,102107.38
2022-07-28T22:05:38.857Z,102111.00
2022-07-28T22:08:08.845Z,102106.50
2022-07-28T22:10:38.259Z,102103.00
2022-07-28T22:13:06.763Z,102080.06
2022-07-28T22:15:36.550Z,102102.97
2022-07-28T22:18:04.750Z,102103.00
2022-07-28T22:20:32.822Z,102106.56
2022-07-28T22:23:00.940Z,102108.31
2022-07-28T22:25:28.918Z,102099.53
2022-07-28T22:27:58.348Z,102103.06
2022-07-28T22:30:26.543Z,102105.72
2022-07-28T22:32:54.607Z,102115.56
2022-07-28T22:35:22.939Z,102113.84
2022-07-28T22:37:51.170Z,102119.13
2022-07-28T22:40:19.511Z,102119.13
2022-07-28T22:42:48.673Z,102110.31
2022-07-28T22:45:50.679Z,102083.88
2022-07-28T22:48:07.085Z,102095.28
2022-07-28T22:50:37.349Z,102117.41
2022-07-28T22:53:05.432Z,102109.41
2022-07-28T22:58:19.540Z,102109.44
2022-07-28T23:00:50.614Z,102112.22
2022-07-28T23:03:20.419Z,102119.34
2022-07-28T23:05:48.707Z,102113.19
2022-07-28T23:08:18.770Z,102116.72
2022-07-28T23:10:46.966Z,102113.09
2022-07-28T23:13:15.376Z,102128.16
2022-07-28T23:15:43.446Z,102119.31
2022-07-28T23:18:14.292Z,102128.19
2022-07-28T23:20:43.330Z,102123.81
2022-07-28T23:23:12.518Z,102118.56
2022-07-28T23:25:43.113Z,102116.75
2022-07-28T23:28:12.492Z,102104.44
2022-07-28T23:30:40.640Z,102115.97
2022-07-28T23:33:08.920Z,102114.09
2022-07-28T23:35:50.305Z,102116.81
2022-07-28T23:38:18.520Z,102108.03
2022-07-28T23:40:46.599Z,102103.56
2022-07-28T23:43:14.776Z,102114.19
2022-07-28T23:45:42.961Z,102102.72
2022-07-28T23:48:11.052Z,102096.44
2022-07-28T23:50:39.145Z,102103.53
2022-07-28T23:53:08.733Z,102095.56
2022-07-28T23:55:36.847Z,102101.75
2022-07-28T23:58:05.412Z,102098.28
